Time;durP1;ratioP1;P1;durP2;ratioP2;P2;SDS_P1;SDS_P2;PMS_P1;PMS_P2;Temp;Humidity;BMP_temperature;BMP_pressure;BME280_temperature;BME280_humidity;BME280_pressure;Samples;Min_cycle;Max_cycle;Signal;HPM_P1;HPM_P2
2022/05/24 00:00:07;;;;;;;0.20;0.20;;;18.90;99.90;;;;;;5054315;28;20209;-65
2022/05/24 00:02:34;;;;;;;0.20;0.20;;;18.90;99.90;;;;;;5049472;28;20674;-66
2022/05/24 00:05:01;;;;;;;0.40;0.40;;;19.00;99.90;;;;;;5053459;28;21665;-67
2022/05/24 00:07:29;;;;;;;0.40;0.40;;;19.10;99.90;;;;;;5046389;28;20294;-67
2022/05/24 00:09:56;;;;;;;1.08;0.30;;;19.10;99.90;;;;;;5046624;28;20245;-68
2022/05/24 00:12:24;;;;;;;0.30;0.30;;;19.10;99.90;;;;;;5049572;28;20279;-67
2022/05/24 00:17:35;;;;;;;0.30;0.30;;;19.10;99.90;;;;;;5049402;28;20187;-65
2022/05/24 00:20:02;;;;;;;0.40;0.40;;;19.10;99.90;;;;;;5066662;28;20188;-66
2022/05/24 00:22:29;;;;;;;0.30;0.30;;;19.10;99.90;;;;;;5069004;28;20204;-64
2022/05/24 00:25:00;;;;;;;0.30;0.30;;;19.00;99.90;;;;;;5054489;28;20199;-65
2022/05/24 00:27:29;;;;;;;0.80;0.35;;;19.00;99.90;;;;;;5043665;28;20848;-67
2022/05/24 00:29:56;;;;;;;0.50;0.50;;;19.00;99.90;;;;;;5048013;28;20287;-66
2022/05/24 00:32:23;;;;;;;0.40;0.40;;;19.00;99.90;;;;;;5050691;28;20204;-65
2022/05/24 00:34:50;;;;;;;0.60;0.60;;;19.00;99.90;;;;;;5052388;28;20318;-65
2022/05/24 00:37:20;;;;;;;0.50;0.50;;;18.90;99.90;;;;;;5051949;28;20220;-66
2022/05/24 00:39:47;;;;;;;0.70;0.70;;;18.90;99.90;;;;;;5052019;28;20756;-65
2022/05/24 00:42:19;;;;;;;0.40;0.40;;;18.80;99.90;;;;;;5050237;28;20207;-66
2022/05/24 00:44:52;;;;;;;0.60;0.60;;;18.80;99.90;;;;;;5049300;28;20306;-66
2022/05/24 00:47:29;;;;;;;0.60;0.60;;;18.70;99.90;;;;;;5048798;28;20310;-66
2022/05/24 00:49:59;;;;;;;0.70;0.70;;;18.70;99.90;;;;;;5059872;28;20291;-66
2022/05/24 00:52:30;;;;;;;0.60;0.60;;;18.80;99.90;;;;;;5051515;28;20204;-66
2022/05/24 00:55:00;;;;;;;0.55;0.55;;;18.80;99.90;;;;;;5051830;28;20212;-66
2022/05/24 00:57:30;;;;;;;0.60;0.60;;;18.90;99.90;;;;;;5051571;28;20269;-66
2022/05/24 01:00:05;;;;;;;0.40;0.40;;;18.80;99.90;;;;;;5052123;28;20283;-67
2022/05/24 01:02:32;;;;;;;0.47;0.47;;;18.80;99.90;;;;;;5051853;28;20219;-67
2022/05/24 01:04:59;;;;;;;0.35;0.35;;;18.70;99.90;;;;;;5055850;28;20196;-67
2022/05/24 01:07:26;;;;;;;0.40;0.40;;;18.70;99.90;;;;;;5058500;28;20234;-66
2022/05/24 01:09:58;;;;;;;0.35;0.35;;;18.60;99.90;;;;;;5058542;28;20203;-65
2022/05/24 01:12:28;;;;;;;0.50;0.50;;;18.60;99.90;;;;;;5058337;28;20192;-66
2022/05/24 01:14:58;;;;;;;0.40;0.40;;;18.60;99.90;;;;;;5056299;28;20208;-65
2022/05/24 01:17:26;;;;;;;0.50;0.50;;;18.50;99.90;;;;;;5056132;28;20200;-66
2022/05/24 01:19:53;;;;;;;0.50;0.50;;;18.50;99.90;;;;;;5056595;28;20212;-66
2022/05/24 01:23:02;;;;;;;0.30;0.30;;;18.50;99.90;;;;;;5055510;28;20636;-66
2022/05/24 01:25:35;;;;;;;0.30;0.30;;;18.50;99.90;;;;;;5029690;28;20274;-67
2022/05/24 01:28:07;;;;;;;0.40;0.40;;;18.50;99.90;;;;;;5057472;28;20315;-65
2022/05/24 01:30:34;;;;;;;1.25;0.47;;;18.50;99.90;;;;;;5073608;28;20286;-67
2022/05/24 01:38:32;;;;;;;0.33;0.33;;;18.50;99.90;;;;;;5060464;28;20206;-65
2022/05/24 01:41:01;;;;;;;0.35;0.35;;;18.40;99.90;;;;;;5067527;28;20601;-66
2022/05/24 01:43:30;;;;;;;0.43;0.43;;;18.50;99.90;;;;;;5074435;28;20209;-66
2022/05/24 01:46:00;;;;;;;0.40;0.40;;;18.50;99.90;;;;;;5053273;28;20572;-66
2022/05/24 01:48:31;;;;;;;0.40;0.40;;;18.50;99.90;;;;;;5056062;28;20279;-66
2022/05/24 01:51:01;;;;;;;0.40;0.40;;;18.40;99.90;;;;;;5036182;28;20246;-67
2022/05/24 01:53:34;;;;;;;0.30;0.30;;;18.40;99.90;;;;;;5043069;28;20211;-67
2022/05/24 01:56:02;;;;;;;0.40;0.40;;;18.30;99.90;;;;;;5041833;28;20239;-66
2022/05/24 01:58:33;;;;;;;0.40;0.40;;;18.30;99.90;;;;;;5037455;28;20291;-66
2022/05/24 02:01:05;;;;;;;0.33;0.33;;;18.20;99.90;;;;;;5036684;28;20263;-67
2022/05/24 02:03:32;;;;;;;0.40;0.40;;;18.20;99.90;;;;;;5037541;28;20300;-67
2022/05/24 02:05:59;;;;;;;0.50;0.50;;;18.20;99.90;;;;;;5039797;28;20216;-66
2022/05/24 02:08:26;;;;;;;0.40;0.40;;;18.20;99.90;;;;;;5039505;28;20219;-67
2022/05/24 02:10:56;;;;;;;0.43;0.43;;;18.20;99.90;;;;;;5036823;28;20292;-67
2022/05/24 02:13:29;;;;;;;0.30;0.30;;;18.20;99.90;;;;;;5036179;28;20287;-66
2022/05/24 02:16:00;;;;;;;0.40;0.40;;;18.20;99.90;;;;;;5035169;28;20299;-66
2022/05/24 02:18:29;;;;;;;0.50;0.50;;;18.20;99.90;;;;;;5035216;28;20233;-66
2022/05/24 02:20:55;;;;;;;0.47;0.47;;;18.20;99.90;;;;;;5035172;28;20292;-67
2022/05/24 02:23:22;;;;;;;0.40;0.40;;;18.20;99.90;;;;;;5034243;28;20307;-66
2022/05/24 02:25:52;;;;;;;0.40;0.40;;;18.10;99.90;;;;;;5034962;28;20594;-66
2022/05/24 02:28:21;;;;;;;0.40;0.40;;;18.20;99.90;;;;;;5034546;28;20215;-66
2022/05/24 02:30:50;;;;;;;0.28;0.28;;;18.10;99.90;;;;;;5034717;28;20316;-67
2022/05/24 02:33:20;;;;;;;0.52;0.52;;;18.10;99.90;;;;;;5034065;28;20204;-66
2022/05/24 02:35:47;;;;;;;1.00;0.60;;;18.10;99.90;;;;;;5034948;28;20239;-66
2022/05/24 02:38:14;;;;;;;0.22;0.22;;;18.00;99.90;;;;;;5035211;28;20288;-66
2022/05/24 02:43:25;;;;;;;0.40;0.40;;;18.00;99.90;;;;;;5044024;28;20195;-66
2022/05/24 02:45:52;;;;;;;0.28;0.28;;;18.00;99.90;;;;;;5053452;28;20231;-66
2022/05/24 02:48:21;;;;;;;0.40;0.40;;;17.90;99.90;;;;;;5049491;28;20688;-66
2022/05/24 02:50:48;;;;;;;0.40;0.40;;;17.80;99.90;;;;;;5052072;28;20229;-66
2022/05/24 02:53:14;;;;;;;0.55;0.55;;;17.70;99.90;;;;;;5049600;28;20211;-67
2022/05/24 02:55:41;;;;;;;0.45;0.45;;;17.70;99.90;;;;;;5041644;28;20238;-66
2022/05/24 02:58:08;;;;;;;0.45;0.45;;;17.60;99.90;;;;;;5035090;28;20718;-67
2022/05/24 03:00:35;;;;;;;0.20;0.20;;;17.70;99.90;;;;;;5034854;28;20205;-66
2022/05/24 03:03:02;;;;;;;0.40;0.40;;;17.60;99.90;;;;;;5034030;28;20299;-66
2022/05/24 03:05:31;;;;;;;0.55;0.52;;;17.60;99.90;;;;;;5035240;28;20216;-65
2022/05/24 03:10:43;;;;;;;0.30;0.30;;;17.40;99.90;;;;;;5034425;28;20670;-67
2022/05/24 03:16:10;;;;;;;0.30;0.30;;;17.40;99.90;;;;;;4953687;29;20773;-66
2022/05/24 03:18:37;;;;;;;0.33;0.33;;;17.40;99.90;;;;;;5016666;28;20291;-67
2022/05/24 03:21:05;;;;;;;0.40;0.40;;;17.40;99.90;;;;;;5034128;28;20244;-66
2022/05/24 03:23:32;;;;;;;0.60;0.60;;;17.40;99.90;;;;;;5033402;28;20308;-65
2022/05/24 03:25:59;;;;;;;0.25;0.25;;;17.40;99.90;;;;;;5033205;28;20252;-65
2022/05/24 03:28:26;;;;;;;0.43;0.43;;;17.40;99.90;;;;;;5034056;28;20270;-65
2022/05/24 03:30:54;;;;;;;0.50;0.50;;;17.40;99.90;;;;;;5034631;28;20228;-66
2022/05/24 03:33:21;;;;;;;0.57;0.57;;;17.40;99.90;;;;;;5034154;28;20268;-66
2022/05/24 03:35:47;;;;;;;0.53;0.53;;;17.30;99.90;;;;;;5035357;28;20311;-66
2022/05/24 03:38:16;;;;;;;0.60;0.60;;;17.30;99.90;;;;;;5038261;28;20209;-66
2022/05/24 03:40:42;;;;;;;0.50;0.50;;;17.30;99.90;;;;;;5041606;28;20303;-66
2022/05/24 03:43:12;;;;;;;0.50;0.50;;;17.30;99.90;;;;;;5041813;28;20300;-66
2022/05/24 03:45:39;;;;;;;0.80;0.70;;;17.30;99.90;;;;;;5041025;28;20244;-66
2022/05/24 03:48:06;;;;;;;0.40;0.40;;;17.30;99.90;;;;;;5042082;28;20244;-66
2022/05/24 03:50:33;;;;;;;0.40;0.40;;;17.40;99.90;;;;;;5041340;28;20273;-66
2022/05/24 03:53:01;;;;;;;0.40;0.40;;;17.40;99.90;;;;;;5039061;28;20232;-67
2022/05/24 03:55:29;;;;;;;0.40;0.40;;;17.40;99.90;;;;;;5039781;28;20263;-64
2022/05/24 03:58:02;;;;;;;0.45;0.45;;;17.40;99.90;;;;;;5042053;28;20667;-65
2022/05/24 04:00:33;;;;;;;0.70;0.63;;;17.40;99.90;;;;;;5041420;28;20197;-64
2022/05/24 04:03:00;;;;;;;0.40;0.40;;;17.50;99.90;;;;;;5038037;28;20236;-65
2022/05/24 04:05:27;;;;;;;0.57;0.57;;;17.50;99.90;;;;;;5036832;28;20255;-64
2022/05/24 04:07:54;;;;;;;0.30;0.30;;;17.50;99.90;;;;;;5036176;28;20263;-64
2022/05/24 04:10:21;;;;;;;0.40;0.40;;;17.50;99.90;;;;;;5035713;28;20292;-65
2022/05/24 04:12:50;;;;;;;0.50;0.50;;;17.50;99.90;;;;;;5034945;28;20205;-64
2022/05/24 04:15:18;;;;;;;0.50;0.50;;;17.50;99.90;;;;;;5035034;28;20263;-65
2022/05/24 04:17:46;;;;;;;0.50;0.50;;;17.50;99.90;;;;;;5035318;28;20205;-64
2022/05/24 04:20:13;;;;;;;0.60;0.60;;;17.50;99.90;;;;;;5034764;28;20299;-64
2022/05/24 04:22:40;;;;;;;0.63;0.60;;;17.40;99.90;;;;;;5033067;28;20276;-64
2022/05/24 04:25:09;;;;;;;0.30;0.30;;;17.40;99.90;;;;;;5033604;28;20653;-64
2022/05/24 04:27:36;;;;;;;0.70;0.70;;;17.40;99.90;;;;;;5033506;28;20209;-65
2022/05/24 04:30:04;;;;;;;0.50;0.50;;;17.30;99.90;;;;;;5032746;28;20679;-64
2022/05/24 04:32:31;;;;;;;0.60;0.60;;;17.30;99.90;;;;;;5033112;28;20240;-65
2022/05/24 04:34:58;;;;;;;0.87;0.73;;;17.30;99.90;;;;;;5033197;28;20287;-65
2022/05/24 04:37:25;;;;;;;0.40;0.40;;;17.30;99.90;;;;;;5033083;28;20308;-66
2022/05/24 04:39:52;;;;;;;0.50;0.50;;;17.30;99.90;;;;;;5066194;28;20237;-67
2022/05/24 04:42:18;;;;;;;0.50;0.50;;;17.70;99.90;;;;;;5073645;28;20677;-66
2022/05/24 04:44:46;;;;;;;0.50;0.50;;;18.10;99.90;;;;;;5074086;28;20214;-66
2022/05/24 04:47:14;;;;;;;0.43;0.43;;;18.50;99.90;;;;;;5054919;28;20828;-67
2022/05/24 04:49:44;;;;;;;0.57;0.57;;;18.70;99.90;;;;;;5054187;28;20271;-64
2022/05/24 04:52:12;;;;;;;0.30;0.30;;;19.00;99.90;;;;;;5056745;28;20231;-66
2022/05/24 04:54:40;;;;;;;0.57;0.57;;;19.20;99.90;;;;;;5059037;28;20208;-65
2022/05/24 04:57:08;;;;;;;0.50;0.50;;;19.30;99.90;;;;;;5062346;22;20248;-60
2022/05/24 04:59:35;;;;;;;0.60;0.60;;;19.10;99.90;;;;;;5049886;28;20231;-60
2022/05/24 05:02:03;;;;;;;0.50;0.50;;;19.10;99.90;;;;;;5049902;28;20720;-60
2022/05/24 05:04:31;;;;;;;0.40;0.40;;;19.10;99.90;;;;;;5052076;28;20638;-62
2022/05/24 05:06:58;;;;;;;2.63;0.80;;;19.20;99.90;;;;;;5041884;28;20307;-61
2022/05/24 05:09:26;;;;;;;0.70;0.70;;;19.00;99.90;;;;;;5031735;28;20205;-62
2022/05/24 05:11:53;;;;;;;0.60;0.60;;;18.80;99.90;;;;;;5048645;28;20215;-62
2022/05/24 05:14:20;;;;;;;0.50;0.50;;;18.70;99.90;;;;;;5052076;28;20273;-61
2022/05/24 05:16:47;;;;;;;0.70;0.70;;;18.50;99.90;;;;;;5049752;28;20566;-62
2022/05/24 05:19:14;;;;;;;0.60;0.60;;;18.50;99.90;;;;;;5051190;28;20235;-61
2022/05/24 05:21:42;;;;;;;0.70;0.70;;;18.40;99.90;;;;;;5048984;28;20306;-62
2022/05/24 05:24:10;;;;;;;0.60;0.60;;;18.40;99.90;;;;;;5045670;28;20204;-61
2022/05/24 05:26:37;;;;;;;1.13;0.53;;;18.40;99.90;;;;;;5051187;28;20279;-61
2022/05/24 05:29:05;;;;;;;0.70;0.70;;;18.50;99.90;;;;;;5044280;28;20227;-61
2022/05/24 05:31:31;;;;;;;3.50;1.07;;;18.50;99.90;;;;;;5054637;28;20223;-61
2022/05/24 05:34:00;;;;;;;1.17;0.77;;;18.50;99.90;;;;;;5051404;28;20200;-61
2022/05/24 05:36:28;;;;;;;0.93;0.93;;;18.50;99.90;;;;;;5051302;28;20231;-61
2022/05/24 05:38:57;;;;;;;0.70;0.70;;;18.60;99.90;;;;;;5043542;28;20204;-62
2022/05/24 05:41:26;;;;;;;0.67;0.67;;;18.60;99.90;;;;;;5048713;28;20215;-62
2022/05/24 05:43:53;;;;;;;0.93;0.70;;;18.40;99.90;;;;;;5043935;28;20235;-60
2022/05/24 05:46:20;;;;;;;0.60;0.60;;;18.30;99.90;;;;;;5048204;28;20252;-61
2022/05/24 05:48:47;;;;;;;0.80;0.80;;;18.20;99.90;;;;;;5050963;28;20281;-60
2022/05/24 05:51:16;;;;;;;1.00;0.80;;;18.00;99.90;;;;;;5050217;28;21044;-60
2022/05/24 05:53:44;;;;;;;0.80;0.80;;;18.10;99.90;;;;;;5055888;28;20303;-60
2022/05/24 05:56:17;;;;;;;0.80;0.80;;;18.00;99.90;;;;;;5048322;28;20314;-61
2022/05/24 05:58:44;;;;;;;0.87;0.70;;;17.80;99.90;;;;;;5048937;28;20295;-60
2022/05/24 06:01:16;;;;;;;0.70;0.70;;;17.60;99.90;;;;;;5052174;28;20304;-61
2022/05/24 06:03:43;;;;;;;0.70;0.70;;;17.40;99.90;;;;;;5043228;28;20212;-59
2022/05/24 06:06:14;;;;;;;0.50;0.50;;;17.40;99.90;;;;;;5052300;28;20306;-61
2022/05/24 06:08:40;;;;;;;0.50;0.50;;;17.30;99.90;;;;;;5052139;28;20232;-60
2022/05/24 06:11:07;;;;;;;0.50;0.50;;;17.10;99.90;;;;;;5047992;28;20291;-59
2022/05/24 06:13:36;;;;;;;0.47;0.47;;;17.10;99.90;;;;;;5051578;28;20196;-61
2022/05/24 06:16:03;;;;;;;0.40;0.40;;;17.30;99.90;;;;;;5044794;28;20229;-62
2022/05/24 06:18:30;;;;;;;0.20;0.20;;;17.20;99.90;;;;;;5040520;28;20262;-60
2022/05/24 06:20:56;;;;;;;0.80;0.60;;;17.10;99.90;;;;;;5047761;28;20263;-59
2022/05/24 06:23:24;;;;;;;1.13;0.60;;;17.10;99.90;;;;;;5045711;28;20226;-60
2022/05/24 06:25:51;;;;;;;0.70;0.70;;;17.30;99.90;;;;;;5045792;28;20204;-60
2022/05/24 06:28:19;;;;;;;0.37;0.27;;;17.60;99.90;;;;;;5047618;28;20680;-59
2022/05/24 06:30:47;;;;;;;0.40;0.40;;;17.60;99.90;;;;;;5050690;28;20521;-60
2022/05/24 06:33:14;;;;;;;0.30;0.30;;;17.40;99.90;;;;;;5046984;28;20232;-61
2022/05/24 06:35:42;;;;;;;0.77;0.40;;;17.20;99.90;;;;;;5048393;28;20288;-60
2022/05/24 06:38:09;;;;;;;0.40;0.40;;;17.10;99.90;;;;;;5046055;28;20307;-60
2022/05/24 06:40:36;;;;;;;0.40;0.40;;;17.00;99.90;;;;;;5043622;28;20219;-59
2022/05/24 06:43:03;;;;;;;0.50;0.50;;;17.00;99.90;;;;;;5046332;28;20236;-61
2022/05/24 06:45:30;;;;;;;0.50;0.50;;;16.90;99.90;;;;;;5049985;28;20227;-59
2022/05/24 06:47:59;;;;;;;0.57;0.57;;;16.90;99.90;;;;;;5047198;28;20216;-60
2022/05/24 06:50:26;;;;;;;0.67;0.57;;;16.90;99.90;;;;;;5039114;28;20235;-60
2022/05/24 06:52:54;;;;;;;0.50;0.50;;;17.10;99.90;;;;;;5044281;28;20215;-60
2022/05/24 06:55:22;;;;;;;0.47;0.47;;;17.30;99.90;;;;;;5040520;28;20215;-60
2022/05/24 06:57:49;;;;;;;0.30;0.30;;;17.40;99.90;;;;;;5039844;28;20746;-60
2022/05/24 07:03:05;;;;;;;0.40;0.40;;;17.50;99.90;;;;;;5044871;28;20207;-61
2022/05/24 07:05:32;;;;;;;0.60;0.60;;;17.50;99.90;;;;;;5038497;28;20206;-60
2022/05/24 07:08:00;;;;;;;0.53;0.53;;;17.50;99.90;;;;;;5043879;28;20216;-60
2022/05/24 07:10:27;;;;;;;0.50;0.50;;;17.60;99.90;;;;;;5038977;28;20211;-61
2022/05/24 07:13:02;;;;;;;1.30;0.47;;;17.70;99.90;;;;;;5040074;28;20288;-60
2022/05/24 07:15:29;;;;;;;0.57;0.50;;;17.60;99.90;;;;;;5040059;28;20204;-65
2022/05/24 07:17:56;;;;;;;0.37;0.37;;;17.60;99.90;;;;;;5036736;28;20234;-60
2022/05/24 07:20:26;;;;;;;0.47;0.47;;;17.60;99.90;;;;;;5043851;28;20273;-60
2022/05/24 07:22:54;;;;;;;0.60;0.60;;;17.50;99.90;;;;;;5038879;28;20209;-60
2022/05/24 07:25:22;;;;;;;0.40;0.40;;;17.50;99.90;;;;;;5037668;28;20231;-60
2022/05/24 07:27:49;;;;;;;0.50;0.50;;;17.50;99.90;;;;;;5042886;28;20221;-62
2022/05/24 07:30:16;;;;;;;0.50;0.50;;;17.60;99.90;;;;;;5050211;28;20204;-61
2022/05/24 07:32:45;;;;;;;0.47;0.47;;;17.70;99.90;;;;;;5044095;28;20349;-60
2022/05/24 07:35:12;;;;;;;0.32;0.32;;;17.80;99.90;;;;;;5052970;28;20208;-60
2022/05/24 07:37:41;;;;;;;1.10;0.43;;;17.90;99.90;;;;;;5049568;28;20224;-61
2022/05/24 07:45:51;;;;;;;0.30;0.30;;;17.90;99.90;;;;;;5046285;28;20199;-61
2022/05/24 07:48:19;;;;;;;0.30;0.30;;;18.00;99.90;;;;;;5032775;28;20283;-61
2022/05/24 07:50:47;;;;;;;0.50;0.50;;;18.10;99.90;;;;;;5032406;28;20205;-62
2022/05/24 07:53:15;;;;;;;1.20;0.67;;;18.20;99.90;;;;;;5032448;28;20211;-61
2022/05/24 07:55:44;;;;;;;0.50;0.33;;;18.30;99.90;;;;;;5033018;28;20258;-61
2022/05/24 07:58:11;;;;;;;0.40;0.40;;;18.40;99.90;;;;;;5033122;28;20655;-61
2022/05/24 08:00:38;;;;;;;0.50;0.50;;;18.40;99.90;;;;;;5033821;28;20200;-61
2022/05/24 08:03:06;;;;;;;0.40;0.40;;;18.40;99.90;;;;;;5032141;28;20204;-61
2022/05/24 08:05:35;;;;;;;0.53;0.53;;;18.50;99.90;;;;;;5032218;28;20215;-61
2022/05/24 08:08:02;;;;;;;0.37;0.37;;;18.60;99.90;;;;;;5032941;28;20248;-61
2022/05/24 08:10:30;;;;;;;0.60;0.60;;;18.60;99.90;;;;;;5033944;28;20244;-61
2022/05/24 08:12:57;;;;;;;0.40;0.40;;;18.70;99.90;;;;;;5037928;28;20213;-61
2022/05/24 08:15:25;;;;;;;0.97;0.50;;;18.70;99.90;;;;;;5039980;28;20196;-61
2022/05/24 08:17:52;;;;;;;0.37;0.37;;;18.70;99.90;;;;;;5040630;28;20586;-61
2022/05/24 08:20:20;;;;;;;0.45;0.45;;;18.60;99.90;;;;;;5032303;28;20299;-61
2022/05/24 08:22:47;;;;;;;0.50;0.50;;;18.70;99.90;;;;;;5032825;28;20212;-61
2022/05/24 08:25:15;;;;;;;0.40;0.40;;;18.80;99.90;;;;;;5036817;28;20658;-62
2022/05/24 08:27:44;;;;;;;0.40;0.40;;;19.00;99.90;;;;;;5038823;28;20310;-61
2022/05/24 08:30:13;;;;;;;0.75;0.40;;;19.00;99.90;;;;;;5039468;28;20211;-61
2022/05/24 08:32:41;;;;;;;0.60;0.60;;;19.20;99.90;;;;;;5039093;28;20291;-61
2022/05/24 08:35:10;;;;;;;0.40;0.40;;;19.40;99.90;;;;;;5035129;28;20602;-61
2022/05/24 08:37:38;;;;;;;0.40;0.40;;;19.60;99.90;;;;;;5036254;28;20690;-61
2022/05/24 08:40:06;;;;;;;0.53;0.40;;;19.80;99.90;;;;;;5042632;28;20263;-61
2022/05/24 08:42:41;;;;;;;0.50;0.50;;;20.00;99.90;;;;;;5037359;28;20238;-62
2022/05/24 08:50:50;;;;;;;0.60;0.60;;;20.30;99.90;;;;;;5039937;28;20795;-62
2022/05/24 08:53:26;;;;;;;0.30;0.30;;;20.40;99.90;;;;;;5038785;28;20230;-61
2022/05/24 08:55:53;;;;;;;0.37;0.37;;;20.70;99.90;;;;;;5035408;28;20275;-62
2022/05/24 08:58:30;;;;;;;0.40;0.40;;;20.90;99.90;;;;;;5036722;28;20280;-61
2022/05/24 09:00:59;;;;;;;0.50;0.47;;;21.00;99.90;;;;;;5040759;28;20306;-61
2022/05/24 09:03:26;;;;;;;0.37;0.37;;;21.00;99.90;;;;;;5038437;28;20260;-61
2022/05/24 09:06:03;;;;;;;0.40;0.40;;;21.10;99.90;;;;;;5039423;28;20207;-61
2022/05/24 09:08:33;;;;;;;0.40;0.40;;;21.20;99.90;;;;;;5043485;28;20187;-61
2022/05/24 09:11:08;;;;;;;0.40;0.40;;;21.40;99.90;;;;;;5045717;28;20210;-62
2022/05/24 09:13:55;;;;;;;0.40;0.40;;;21.50;99.90;;;;;;5045470;28;20223;-60
2022/05/24 09:16:33;;;;;;;0.50;0.50;;;21.60;99.90;;;;;;5034652;28;20307;-62
2022/05/24 09:19:05;;;;;;;0.40;0.40;;;21.80;99.90;;;;;;5048096;28;20204;-61
2022/05/24 09:21:35;;;;;;;0.50;0.50;;;21.70;99.90;;;;;;5042807;28;20196;-62
2022/05/24 09:24:09;;;;;;;0.40;0.40;;;21.20;99.90;;;;;;5045724;28;20196;-61
2022/05/24 09:27:03;;;;;;;0.60;0.60;;;20.80;99.90;;;;;;5040408;28;20224;-61
2022/05/24 09:29:31;;;;;;;0.32;0.32;;;20.50;99.90;;;;;;5045650;28;20686;-61
2022/05/24 09:32:05;;;;;;;0.40;0.40;;;20.60;99.90;;;;;;5046295;28;20200;-61
2022/05/24 09:34:35;;;;;;;0.35;0.35;;;20.90;99.90;;;;;;5052123;28;20294;-60
2022/05/24 09:37:03;;;;;;;0.35;0.32;;;21.20;99.90;;;;;;5047398;28;20224;-61
2022/05/24 09:39:33;;;;;;;0.80;0.80;;;21.40;99.90;;;;;;5051363;28;20202;-61
2022/05/24 09:42:01;;;;;;;0.50;0.50;;;21.40;99.90;;;;;;5035966;28;20201;-63
2022/05/24 09:44:30;;;;;;;0.75;0.60;;;21.60;99.90;;;;;;5041728;28;20201;-63
2022/05/24 09:46:57;;;;;;;0.57;0.57;;;21.80;99.90;;;;;;5036412;28;20718;-63
2022/05/24 09:49:29;;;;;;;0.30;0.30;;;22.10;99.90;;;;;;5036517;28;20243;-61
2022/05/24 09:51:57;;;;;;;0.50;0.50;;;22.20;99.90;;;;;;5046865;28;20235;-61
2022/05/24 09:54:27;;;;;;;0.40;0.40;;;22.40;99.90;;;;;;5040581;28;20235;-63
2022/05/24 09:57:06;;;;;;;0.35;0.35;;;22.60;99.90;;;;;;5043421;28;20323;-62
2022/05/24 09:59:35;;;;;;;0.40;0.40;;;22.70;99.90;;;;;;5042838;28;20200;-61
2022/05/24 10:02:02;;;;;;;0.50;0.50;;;22.80;99.90;;;;;;5040065;28;20288;-62
2022/05/24 10:04:36;;;;;;;0.40;0.40;;;23.00;99.90;;;;;;5038752;28;20205;-62
2022/05/24 10:07:08;;;;;;;0.50;0.50;;;22.90;99.90;;;;;;5050984;28;20242;-62
2022/05/24 10:10:04;;;;;;;0.30;0.30;;;23.00;99.90;;;;;;5048511;28;20208;-62
2022/05/24 10:12:43;;;;;;;0.40;0.40;;;23.00;99.90;;;;;;5044645;28;20247;-62
2022/05/24 10:15:18;;;;;;;0.50;0.50;;;23.20;99.90;;;;;;5051693;28;20211;-62
2022/05/24 10:17:57;;;;;;;0.40;0.40;;;23.10;99.90;;;;;;5053912;28;20223;-61
2022/05/24 10:20:33;;;;;;;0.55;0.55;;;23.00;99.90;;;;;;5058413;28;20222;-64
2022/05/24 10:23:10;;;;;;;0.50;0.50;;;23.00;99.90;;;;;;5050206;28;20228;-62
2022/05/24 10:25:41;;;;;;;0.40;0.40;;;23.00;99.90;;;;;;5045620;28;20558;-61
2022/05/24 10:28:31;;;;;;;0.40;0.40;;;23.00;99.90;;;;;;5050134;28;20287;-63
2022/05/24 10:31:08;;;;;;;0.35;0.35;;;22.80;99.90;;;;;;5053392;28;20223;-63
2022/05/24 10:39:46;;;;;;;0.30;0.30;;;23.00;99.90;;;;;;5055120;28;20342;-63
2022/05/24 10:42:25;;;;;;;0.50;0.50;;;22.60;99.90;;;;;;5040010;28;20204;-62
2022/05/24 10:44:56;;;;;;;0.30;0.30;;;22.10;99.90;;;;;;5047894;28;20287;-62
2022/05/24 10:47:28;;;;;;;0.52;0.52;;;22.10;99.90;;;;;;5050550;28;20303;-62
2022/05/24 10:50:01;;;;;;;0.40;0.40;;;22.40;99.90;;;;;;5047168;28;20204;-62
2022/05/24 10:52:35;;;;;;;0.47;0.47;;;22.30;99.90;;;;;;5047385;28;20593;-62
2022/05/24 10:55:06;;;;;;;0.30;0.30;;;22.40;99.90;;;;;;5049636;28;20662;-64
2022/05/24 10:57:39;;;;;;;0.30;0.30;;;22.60;99.90;;;;;;5074515;22;20234;-64
2022/05/24 11:00:12;;;;;;;0.33;0.33;;;22.50;99.90;;;;;;5040876;28;20239;-65
2022/05/24 11:02:44;;;;;;;1.17;0.47;;;22.70;99.90;;;;;;5053821;28;20192;-66
2022/05/24 11:05:17;;;;;;;0.40;0.40;;;22.90;99.90;;;;;;5054919;28;20254;-66
2022/05/24 11:07:48;;;;;;;0.45;0.45;;;22.80;99.90;;;;;;5054902;28;20258;-65
2022/05/24 11:10:23;;;;;;;0.30;0.30;;;23.00;99.90;;;;;;5054928;28;20219;-64
2022/05/24 11:12:53;;;;;;;0.30;0.30;;;23.20;99.90;;;;;;5054555;28;20299;-65
2022/05/24 11:15:24;;;;;;;0.47;0.47;;;23.30;99.90;;;;;;5056988;28;20200;-66
2022/05/24 11:17:52;;;;;;;0.25;0.25;;;23.30;99.90;;;;;;5058275;28;20284;-63
2022/05/24 11:20:25;;;;;;;0.25;0.25;;;22.80;99.90;;;;;;5056408;28;20204;-64
2022/05/24 11:23:05;;;;;;;0.47;0.40;;;23.10;99.90;;;;;;5057186;28;20644;-65
2022/05/24 11:25:38;;;;;;;0.82;0.47;;;23.30;99.90;;;;;;5060801;28;20267;-65
2022/05/24 11:28:25;;;;;;;0.20;0.20;;;22.80;99.90;;;;;;5061212;28;20219;-63
2022/05/24 11:30:53;;;;;;;0.30;0.30;;;22.60;99.90;;;;;;5063003;28;20238;-65
2022/05/24 11:33:36;;;;;;;0.50;0.50;;;22.20;99.90;;;;;;5056828;28;20207;-65
2022/05/24 11:36:25;;;;;;;0.30;0.30;;;22.00;99.90;;;;;;5058332;28;20210;-63
2022/05/24 11:38:54;;;;;;;0.28;0.28;;;22.20;99.90;;;;;;5058983;28;20303;-65
2022/05/24 11:41:31;;;;;;;0.40;0.40;;;22.50;99.90;;;;;;5056221;28;20207;-65
2022/05/24 11:44:06;;;;;;;0.30;0.30;;;22.70;99.90;;;;;;5063542;28;20237;-65
2022/05/24 11:46:46;;;;;;;0.40;0.40;;;22.50;99.90;;;;;;5066851;28;20234;-65
2022/05/24 11:49:55;;;;;;;0.50;0.50;;;22.50;99.90;;;;;;5070544;28;20204;-64
2022/05/24 11:52:46;;;;;;;0.25;0.20;;;22.40;99.90;;;;;;5056110;28;20696;-66
2022/05/24 11:55:42;;;;;;;1.50;1.13;;;22.30;99.90;;;;;;5059402;28;20317;-66
2022/05/24 11:58:40;;;;;;;1.60;1.50;;;22.30;99.90;;;;;;5055496;28;20224;-64
2022/05/24 12:01:10;;;;;;;0.95;0.95;;;22.10;99.90;;;;;;5055886;28;20279;-65
2022/05/24 12:09:17;;;;;;;0.45;0.45;;;22.00;99.90;;;;;;5055964;28;20249;-67
2022/05/24 12:11:45;;;;;;;1.10;1.10;;;22.00;99.90;;;;;;5055569;28;20215;-65
2022/05/24 12:14:16;;;;;;;0.40;0.40;;;22.00;99.90;;;;;;5053746;28;20294;-66
2022/05/24 12:17:09;;;;;;;0.60;0.60;;;21.90;99.90;;;;;;5054677;28;20251;-65
2022/05/24 12:19:49;;;;;;;0.70;0.70;;;22.00;99.90;;;;;;5053967;28;20238;-65
2022/05/24 12:22:17;;;;;;;1.63;1.40;;;22.30;99.90;;;;;;5054028;28;20214;-65
2022/05/24 12:24:55;;;;;;;1.65;1.55;;;22.10;99.90;;;;;;5052529;28;20674;-64
2022/05/24 12:27:42;;;;;;;0.77;0.77;;;22.10;99.90;;;;;;5053206;28;20231;-65
2022/05/24 12:30:40;;;;;;;2.65;2.47;;;22.10;99.90;;;;;;5053659;28;20215;-65
2022/05/24 12:33:29;;;;;;;6.15;5.15;;;21.90;99.90;;;;;;5052812;28;20299;-65
2022/05/24 12:36:02;;;;;;;5.30;4.82;;;21.70;99.90;;;;;;5050437;28;20290;-64
2022/05/24 12:38:30;;;;;;;1.38;1.27;;;21.60;99.90;;;;;;5053569;28;20693;-66
2022/05/24 12:41:14;;;;;;;1.38;1.27;;;21.60;99.90;;;;;;5054011;28;20276;-65
2022/05/24 12:43:54;;;;;;;1.23;1.17;;;21.40;99.90;;;;;;5034093;28;20209;-63
2022/05/24 12:46:22;;;;;;;0.22;0.22;;;21.30;99.90;;;;;;5032281;28;20433;-65
2022/05/24 12:48:50;;;;;;;0.98;0.98;;;21.30;99.90;;;;;;5030741;28;20201;-64
2022/05/24 12:51:20;;;;;;;2.47;1.40;;;21.30;99.90;;;;;;5028757;28;20205;-65
2022/05/24 12:53:47;;;;;;;1.73;1.63;;;21.30;99.90;;;;;;5026657;28;20224;-64
2022/05/24 12:56:19;;;;;;;0.50;0.50;;;21.50;99.90;;;;;;5032411;28;20236;-64
2022/05/24 12:58:49;;;;;;;0.50;0.50;;;21.60;99.90;;;;;;5031536;28;20726;-63
2022/05/24 13:01:19;;;;;;;0.50;0.50;;;21.50;99.90;;;;;;5030108;28;20235;-67
2022/05/24 13:03:54;;;;;;;1.20;1.20;;;21.60;99.90;;;;;;5027536;28;20343;-64
2022/05/24 13:06:26;;;;;;;0.55;0.55;;;21.70;99.90;;;;;;5029627;28;20208;-64
2022/05/24 13:09:15;;;;;;;0.43;0.43;;;21.80;99.90;;;;;;5031751;28;20201;-64
2022/05/24 13:11:44;;;;;;;0.60;0.60;;;21.90;99.90;;;;;;5029511;28;20209;-65
2022/05/24 13:14:16;;;;;;;0.50;0.50;;;21.90;99.90;;;;;;5030026;28;20291;-64
2022/05/24 13:16:45;;;;;;;0.40;0.40;;;22.00;99.90;;;;;;5029625;28;20229;-66
2022/05/24 13:19:12;;;;;;;1.25;0.75;;;21.90;99.90;;;;;;5030003;28;20228;-65
2022/05/24 13:21:39;;;;;;;0.70;0.70;;;21.80;99.90;;;;;;5028934;28;20304;-64
2022/05/24 13:24:14;;;;;;;0.60;0.60;;;21.90;99.90;;;;;;5029540;28;20287;-65
2022/05/24 13:27:02;;;;;;;0.73;0.70;;;22.30;99.90;;;;;;5030210;28;20228;-64
2022/05/24 13:33:32;;;;;;;1.75;0.70;;;22.10;99.90;;;;;;5030458;28;20251;-66
2022/05/24 13:35:18;;;;;;;0.50;0.50;;;22.10;99.90;;;;;;4968420;28;20202;-64
2022/05/24 13:37:50;;;;;;;0.60;0.60;;;22.00;99.90;;;;;;5016844;28;20286;-64
2022/05/24 13:40:17;;;;;;;0.43;0.43;;;22.00;99.90;;;;;;5028197;28;20212;-64
2022/05/24 13:42:57;;;;;;;0.40;0.40;;;22.00;99.90;;;;;;5025704;28;20208;-64
2022/05/24 13:45:27;;;;;;;0.50;0.50;;;22.10;99.90;;;;;;5030622;28;20216;-64
2022/05/24 13:47:56;;;;;;;1.67;0.75;;;22.20;99.90;;;;;;5041436;28;20480;-64
2022/05/24 13:50:31;;;;;;;0.60;0.60;;;22.20;99.90;;;;;;5040050;28;20209;-64